x

Fripp Nearshore (frp 2) (41033) Weather Station

1:00pm - Sat 6th Feb 2016 All times are EST. -5 hours from GMT.

  • Wind
    22mph, 27mph gusts
  • Air Temp 50°f
  • Sea Pressure 1024.1mb
  • Fripp Nearshore (frp 2)
  • Fripp Nearshore (frp 2)

More Historic Weather Station data

Upgrade to MSW Pro to gain access to the past 30 days of data for over 8000 Wavebouys and Weather Stations around the globe.

Join Pro

Comparision Forecast

View Surf forecast
   
Sat 02/06 1:00pm 22 27 mph 1024.1mb 50f
12:00pm 20 25 mph 1025.2mb 49f
11:00am 25 27 mph 1025.8mb 49f
10:00am 25 29 mph 1026.6mb 48f
9:00am 25 29 mph 1026.2mb 47f
8:00am 22 25 mph 1026.9mb 48f
7:00am 22 27 mph 1026.4mb 48f
6:00am 22 27 mph 1026mb 48f
5:00am 22 25 mph 1026.3mb 48f
4:00am 20 22 mph 1025.9mb 48f
3:00am 18 20 mph 1026.1mb 49f
2:00am 13 16 mph 1027mb 49f
1:00am 16 18 mph 1027.3mb 49f
12:00am 18 20 mph 1027.5mb 49f
Fri 02/05 11:00pm 16 18 mph 1027.8mb 49f
10:00pm 16 18 mph 1027.8mb 50f
9:00pm 16 18 mph 1027.4mb 50f
8:00pm 16 18 mph 1027.1mb 50f
7:00pm 13 16 mph 1026.8mb 51f
6:00pm 16 18 mph 1025.9mb 51f
5:00pm 13 16 mph 1025.1mb 53f
4:00pm 16 18 mph 1024.7mb 53f
3:00pm 13 16 mph 1024.9mb 53f
2:00pm 13
mph
1024.8mb 52f
1:00pm 13 18 mph 1025.3mb 51f
12:00pm 13
mph
1025.4mb 50f
11:00am 13 16 mph 1025.5mb 49f
10:00am 18 22 mph 1025.1mb 48f
9:00am 20 22 mph 1024.3mb 46f
8:00am 16 20 mph 1023.6mb 45f
7:00am 20 22 mph 1022.3mb 46f
6:00am 27 29 mph 1020.8mb 46f
5:00am 29 34 mph 1019.2mb 46f
4:00am 25 29 mph 1018.2mb 47f
3:00am 27 31 mph 1017.7mb 48f
2:00am 22 27 mph 1017.1mb 50f
1:00am 27 29 mph 1016.2mb 52f
12:00am 18 25 mph 1016.1mb 54f
Thu 02/04 11:00pm 18 20 mph 1016.4mb 54f
10:00pm 13 16 mph 1015.9mb 54f
9:00pm 11 13 mph 1016.4mb 53f
8:00pm 9 11 mph 1016.3mb 52f
7:00pm 9 13 mph 1015.2mb 53f
6:00pm 13 16 mph 1014.4mb 53f
5:00pm 13 16 mph 1014.1mb 54f
4:00pm 11 13 mph 1013.4mb 56f
3:00pm 9 11 mph 1013.8mb 56f
2:00pm 13 18 mph 1015.2mb 60f
1:00pm 7
mph
1016.5mb 57f
11:00am 7 9 mph 1018.1mb 57f
10:00am 7
mph
1018.3mb 58f
9:00am 9 13 mph 1017.6mb 58f
8:00am 9 13 mph 1016.2mb 59f
7:00am 13 16 mph 1015.7mb 60f
6:00am 7 9 mph 1015.5mb 58f
5:00am 7 9 mph 1014.8mb 59f
4:00am 11 13 mph 1015.5mb 59f
3:00am 13 18 mph 1015.1mb 60f
2:00am 9 11 mph 1015.8mb 60f
12:00am 9 11 mph 1016.3mb 60f
Wed 02/03 11:00pm 13 16 mph 1016.5mb 61f
10:00pm 7 9 mph 1016.5mb 58f
9:00pm 13 16 mph 1016.2mb 61f
8:00pm 16 18 mph 1015.5mb 62f
7:00pm 13 18 mph 1015.5mb 61f
6:00pm 13 16 mph 1014.8mb 61f
5:00pm 13 18 mph 1014.5mb 61f
4:00pm 13 16 mph 1014.6mb 61f
3:00pm 16 18 mph 1014.6mb 62f
2:00pm 18 20 mph 1015.3mb 61f
1:00pm 9 13 mph 1017mb 60f
12:00pm 9 11 mph 1018.1mb 60f
11:00am 13 16 mph 1018.3mb 61f
10:00am 13 18 mph 1018.3mb 61f
9:00am 11 13 mph 1018.2mb 62f
7:00am 11 16 mph 1017.2mb 60f
6:00am 11 13 mph 1017.2mb 60f
5:00am 9 11 mph 1017.3mb 60f
4:00am 11 16 mph 1017.3mb 60f
3:00am 9 11 mph 1017.8mb 60f
2:00am 11 13 mph 1017.7mb 60f
1:00am 11 13 mph 1018.4mb 59f
12:00am 4 7 mph 1019.2mb 58f
Tue 02/02 11:00pm 7
mph
1020.2mb 59f
10:00pm 7 9 mph 1020.5mb 57f
9:00pm 9 11 mph 1020.6mb 57f
8:00pm 11 13 mph 1020.4mb 58f